| time (UTC) | temp F | wind direction | speed MPH | gust MPH | rain 1hr in | rain 24hr in | rain mn in | humidity % | barometer mb |
| 20260503060140 | 73 | 269 | 0.0 | 4.0 | 0.00 | 1.26 | 0.00 | 89 | 1013.4 |
| 20260503054534 | 73 | 265 | 0.0 | 4.0 | 0.00 | 1.26 | 0.00 | 89 | 1013.5 |
| 20260503053122 | 73 | 263 | 0.0 | 2.0 | 0.00 | 1.26 | 0.00 | 89 | 1013.6 |
| 20260503051538 | 74 | 250 | 3.0 | 6.0 | 0.00 | 1.26 | 0.00 | 89 | 1013.6 |
| 20260503050129 | 74 | 251 | 2.0 | 5.0 | 0.00 | 1.26 | 0.00 | 89 | 1013.6 |
| 20260503044552 | 75 | 261 | 0.0 | 0.0 | 0.00 | 1.26 | 0.00 | 89 | 1013.7 |
| 20260503043021 | 75 | 248 | 0.0 | 0.0 | 0.00 | 1.26 | 0.00 | 89 | 1014.0 |
| 20260503041609 | 75 | 283 | 0.0 | 0.0 | 0.00 | 1.26 | 0.00 | 89 | 1013.9 |
| 20260503034516 | 75 | 283 | 0.0 | 0.0 | 0.00 | 1.26 | 1.26 | 89 | 1014.2 |
| 20260503033110 | 75 | 284 | 0.0 | 0.0 | 0.00 | 1.26 | 1.26 | 89 | 1014.2 |
| 20260503030125 | 76 | 283 | 0.0 | 0.0 | 0.00 | 1.26 | 1.26 | 89 | 1014.1 |
| 20260503024541 | 76 | 280 | 2.0 | 6.0 | 0.00 | 1.26 | 1.26 | 89 | 1014.0 |
| 20260503023135 | 76 | 268 | 0.0 | 0.0 | 0.00 | 1.26 | 1.26 | 89 | 1013.9 |
| 20260503021547 | 76 | 309 | 0.0 | 0.0 | 0.00 | 1.26 | 1.26 | 89 | 1013.6 |
| 20260503020002 | 77 | 284 | 0.0 | 0.0 | 0.00 | 1.26 | 1.26 | 89 | 1013.7 |
| 20260503014608 | 77 | 276 | 0.0 | 0.0 | 0.00 | 1.26 | 1.26 | 89 | 1013.4 |
| 20260503013005 | 77 | 279 | 0.0 | 0.0 | 0.00 | 1.26 | 1.26 | 89 | 1013.2 |
| 20260503011603 | 77 | 286 | 0.0 | 0.0 | 0.00 | 1.26 | 1.26 | 89 | 1013.1 |
| 20260503010011 | 77 | 287 | 0.0 | 0.0 | 0.00 | 1.26 | 1.26 | 89 | 1012.8 |
| 20260503004609 | 77 | 286 | 0.0 | 0.0 | 0.00 | 1.26 | 1.26 | 89 | 1012.5 |
| 20260503003030 | 77 | 302 | 0.0 | 2.0 | 0.00 | 1.26 | 1.26 | 89 | 1012.4 |
| 20260503001617 | 77 | 321 | 1.0 | 3.0 | 0.00 | 1.26 | 1.26 | 89 | 1012.3 |
| 20260502234505 | 76 | 317 | 0.0 | 0.0 | 0.03 | 1.27 | 1.26 | 89 | 1012.0 |
| 20260502233103 | 76 | 317 | 1.0 | 3.0 | 0.09 | 1.27 | 1.26 | 89 | 1012.0 |
| 20260502231526 | 76 | 348 | 2.0 | 4.0 | 0.70 | 1.27 | 1.26 | 89 | 1011.7 |
| 20260502230119 | 77 | 53 | 1.0 | 5.0 | 1.12 | 1.27 | 1.26 | 89 | 1011.6 |
| 20260502224541 | 76 | 61 | 6.0 | 9.0 | 1.09 | 1.24 | 1.23 | 89 | 1011.5 |
| 20260502223009 | 76 | 87 | 7.0 | 13.0 | 1.01 | 1.15 | 1.14 | 88 | 1011.5 |
| 20260502221603 | 77 | 58 | 6.0 | 12.0 | 0.44 | 0.59 | 0.57 | 86 | 1011.7 |
| 20260502220028 | 80 | 36 | 6.0 | 13.0 | 0.01 | 0.15 | 0.14 | 84 | 1011.2 |
| 20260502214619 | 82 | 53 | 3.0 | 5.0 | 0.14 | 0.15 | 0.14 | 84 | 1011.2 |
| 20260502213048 | 82 | 185 | 2.0 | 5.0 | 0.14 | 0.15 | 0.14 | 83 | 1010.9 |
| 20260502211509 | 82 | 141 | 4.0 | 8.0 | 0.14 | 0.15 | 0.14 | 83 | 1010.8 |
| 20260502210117 | 83 | 101 | 6.0 | 11.0 | 0.13 | 0.14 | 0.13 | 83 | 1010.7 |
| 20260502203119 | 85 | 155 | 5.0 | 11.0 | 0.00 | 0.01 | 0.00 | 76 | 1010.6 |
| 20260502201550 | 85 | 165 | 7.0 | 14.0 | 0.00 | 0.01 | 0.00 | 75 | 1010.6 |
| 20260502200006 | 86 | 157 | 11.0 | 16.0 | 0.00 | 0.01 | 0.00 | 74 | 1010.7 |
| 20260502194558 | 87 | 175 | 6.0 | 14.0 | 0.00 | 0.01 | 0.00 | 72 | 1010.7 |
| 20260502193027 | 88 | 142 | 6.0 | 11.0 | 0.00 | 0.01 | 0.00 | 69 | 1010.9 |
| 20260502191615 | 89 | 115 | 6.0 | 14.0 | 0.00 | 0.01 | 0.00 | 65 | 1010.8 |
| 20260502190029 | 89 | 124 | 8.0 | 12.0 | 0.00 | 0.01 | 0.00 | 67 | 1010.9 |
| 20260502184622 | 90 | 61 | 8.0 | 16.0 | 0.00 | 0.01 | 0.00 | 64 | 1011.1 |
| 20260502183101 | 91 | 80 | 8.0 | 13.0 | 0.00 | 0.01 | 0.00 | 61 | 1011.1 |
| 20260502181634 | 92 | 147 | 4.0 | 11.0 | 0.00 | 0.01 | 0.00 | 60 | 1011.2 |
| 20260502170117 | 89 | 111 | 7.0 | 14.0 | 0.00 | 0.01 | 0.00 | 65 | 1012.1 |
| 20260502163008 | 91 | 95 | 10.0 | 15.0 | 0.00 | 0.01 | 0.00 | 57 | 1012.3 |
| 20260502161625 | 90 | 62 | 7.0 | 12.0 | 0.00 | 0.01 | 0.00 | 56 | 1012.6 |
| 20260502140128 | 87 | 266 | 3.0 | 9.0 | 0.00 | 0.01 | 0.00 | 62 | 1013.6 |
| 20260502123022 | 80 | 296 | 3.0 | 6.0 | 0.00 | 0.01 | 0.00 | 76 | 1013.0 |
| 20260502121606 | 79 | 277 | 2.0 | 8.0 | 0.00 | 0.01 | 0.00 | 78 | 1012.8 |
| 20260502114623 | 76 | 265 | 2.0 | 5.0 | 0.00 | 0.01 | 0.00 | 83 | 1012.7 |
| 20260502113044 | 75 | 261 | 1.0 | 6.0 | 0.00 | 0.01 | 0.00 | 85 | 1012.3 |
| 20260502111503 | 74 | 267 | 0.0 | 0.0 | 0.00 | 0.01 | 0.00 | 87 | 1012.4 |
| 20260502110056 | 74 | 251 | 2.0 | 5.0 | 0.00 | 0.01 | 0.00 | 87 | 1012.1 |
| 20260502104508 | 73 | 248 | 2.0 | 5.0 | 0.00 | 0.01 | 0.00 | 88 | 1012.0 |
| 20260502103107 | 73 | 257 | 0.0 | 2.0 | 0.00 | 0.01 | 0.00 | 87 | 1011.8 |
| 20260502101515 | 73 | 256 | 2.0 | 5.0 | 0.00 | 0.01 | 0.00 | 87 | 1011.7 |
| 20260502091508 | 73 | 277 | 0.0 | 0.0 | 0.00 | 0.01 | 0.00 | 87 | 1011.0 |
| 20260502090106 | 73 | 273 | 0.0 | 0.0 | 0.00 | 0.01 | 0.00 | 87 | 1010.9 |
| 20260502071533 | 75 | 260 | 0.0 | 0.0 | 0.00 | 0.01 | 0.00 | 87 | 1010.4 |
| 20260502070125 | 75 | 275 | 0.0 | 0.0 | 0.00 | 0.01 | 0.00 | 87 | 1010.6 |
| 20260502064541 | 75 | 276 | 0.0 | 4.0 | 0.00 | 0.01 | 0.00 | 87 | 1010.5 |